Time;durP1;ratioP1;P1;durP2;ratioP2;P2;SDS_P1;SDS_P2;PMS_P1;PMS_P2;Temp;Humidity;BMP_temperature;BMP_pressure;BME280_temperature;BME280_humidity;BME280_pressure;Samples;Min_cycle;Max_cycle;Signal;HPM_P1;HPM_P2
2021/05/18 06:49:12;;;;;;;11.32;6.45;;;;;;;11.99;100.00;97269.31;5031447;28;20515;-80
2021/05/18 06:51:38;;;;;;;13.93;5.93;;;;;;;11.90;100.00;97274.03;5014606;28;20068;-78
2021/05/18 06:54:09;;;;;;;14.40;5.63;;;;;;;12.06;100.00;97272.28;5016726;28;20072;-78
2021/05/18 06:56:37;;;;;;;13.23;6.53;;;;;;;12.26;100.00;97287.75;5012043;28;20688;-78
2021/05/18 07:01:30;;;;;;;12.45;6.50;;;;;;;12.34;100.00;97276.00;5030592;28;20042;-77
2021/05/18 07:04:01;;;;;;;12.57;6.22;;;;;;;12.65;100.00;97289.09;5031585;28;20045;-77
2021/05/18 07:08:57;;;;;;;14.70;6.95;;;;;;;12.66;100.00;97291.50;5030952;28;20380;-76
2021/05/18 07:11:25;;;;;;;15.15;6.50;;;;;;;12.70;100.00;97288.91;5031348;28;20052;-74
2021/05/18 07:13:52;;;;;;;13.73;6.40;;;;;;;12.77;100.00;97294.56;5031526;28;20060;-75
2021/05/18 07:16:19;;;;;;;16.35;6.32;;;;;;;13.08;100.00;97286.72;5030730;28;20144;-76
2021/05/18 07:18:46;;;;;;;16.30;5.93;;;;;;;12.82;100.00;97302.50;5032563;28;20046;-77
2021/05/18 07:21:13;;;;;;;17.25;6.28;;;;;;;12.67;100.00;97303.91;5015536;28;20049;-77
2021/05/18 07:23:40;;;;;;;12.98;6.70;;;;;;;12.83;100.00;97285.84;5030026;28;20041;-76
2021/05/18 07:26:07;;;;;;;11.32;6.10;;;;;;;12.99;100.00;97291.41;5031350;28;20386;-77
2021/05/18 07:28:35;;;;;;;17.75;7.38;;;;;;;13.13;100.00;97302.00;5013321;28;20061;-76
2021/05/18 07:31:05;;;;;;;14.48;6.82;;;;;;;13.13;100.00;97299.28;5032318;28;20142;-77
2021/05/18 07:33:33;;;;;;;16.20;6.70;;;;;;;13.42;100.00;97299.06;5011706;28;20493;-76
2021/05/18 07:36:07;;;;;;;17.27;6.70;;;;;;;13.77;100.00;97305.56;5012180;28;20475;-77
2021/05/18 07:38:40;;;;;;;15.90;7.27;;;;;;;13.61;100.00;97297.31;5012463;28;20509;-76
2021/05/18 07:41:07;;;;;;;14.27;6.50;;;;;;;13.29;100.00;97311.06;5032994;28;20288;-77
2021/05/18 07:43:34;;;;;;;12.10;6.93;;;;;;;12.99;100.00;97310.44;5013526;28;20523;-76
2021/05/18 07:46:04;;;;;;;16.67;7.43;;;;;;;12.67;100.00;97316.72;5031126;28;20156;-76
2021/05/18 07:48:41;;;;;;;12.30;7.03;;;;;;;12.50;100.00;97312.25;5016335;28;20052;-77
2021/05/18 07:59:28;;;;;;;13.00;5.90;;;;;;;14.10;100.00;97316.25;5035767;28;20042;-77
2021/05/18 08:07:26;;;;;;;14.05;5.55;;;;;;;12.88;100.00;97325.59;5035302;28;20386;-76
2021/05/18 08:09:57;;;;;;;18.35;7.53;;;;;;;12.57;100.00;97317.94;5033717;28;20049;-77
2021/05/18 08:12:26;;;;;;;15.60;7.43;;;;;;;12.60;100.00;97338.19;5027556;28;20041;-76
2021/05/18 08:15:16;;;;;;;15.95;7.13;;;;;;;12.80;100.00;97319.13;5029684;28;20040;-75
2021/05/18 08:18:26;;;;;;;17.08;8.02;;;;;;;13.28;100.00;97334.75;5030452;28;20045;-75
2021/05/18 08:20:50;;;;;;;15.35;7.65;;;;;;;13.37;100.00;97324.53;5032845;28;20057;-75
2021/05/18 10:35:33;;;;;;;14.50;5.55;;;;;;;15.25;100.00;97306.13;5038428;28;20520;-76
2021/05/18 10:38:03;;;;;;;11.63;5.22;;;;;;;15.05;100.00;97301.72;5030472;28;20049;-75
2021/05/18 10:40:38;;;;;;;12.55;4.95;;;;;;;14.65;100.00;97294.50;5035032;28;20103;-76
2021/05/18 10:43:07;;;;;;;13.35;5.35;;;;;;;14.51;100.00;97305.00;5015324;28;20061;-76
2021/05/18 10:46:10;;;;;;;12.93;5.38;;;;;;;14.42;100.00;97300.84;5039888;28;20030;-76
2021/05/18 10:48:38;;;;;;;12.05;5.43;;;;;;;14.64;100.00;97303.00;5025737;28;20076;-75
2021/05/18 10:51:48;;;;;;;12.50;5.28;;;;;;;14.60;100.00;97307.56;5028106;28;20302;-75
2021/05/18 10:54:23;;;;;;;12.25;5.60;;;;;;;14.63;100.00;97296.00;5020263;28;20053;-75
2021/05/18 10:56:59;;;;;;;12.43;5.63;;;;;;;15.36;100.00;97301.72;5013089;28;20416;-77
2021/05/18 10:59:36;;;;;;;10.40;4.80;;;;;;;16.37;100.00;97301.63;5027934;28;20045;-76
2021/05/18 11:02:07;;;;;;;13.80;5.20;;;;;;;16.06;100.00;97300.63;5032742;28;20041;-76
2021/05/18 11:04:37;;;;;;;11.88;4.60;;;;;;;15.97;100.00;97299.25;5022301;28;20053;-77
2021/05/18 11:07:05;;;;;;;10.00;4.68;;;;;;;15.48;100.00;97297.00;5037214;28;20050;-76
2021/05/18 11:09:33;;;;;;;10.85;4.82;;;;;;;15.32;100.00;97290.72;5012753;28;20128;-78
2021/05/18 11:12:11;;;;;;;11.57;4.70;;;;;;;15.13;100.00;97292.56;5017603;28;20113;-78
2021/05/18 11:14:38;;;;;;;11.88;4.13;;;;;;;14.59;100.00;97297.81;5016846;28;20125;-77
2021/05/18 11:17:15;;;;;;;14.18;4.80;;;;;;;13.92;100.00;97310.31;5032645;28;20099;-80
2021/05/18 11:19:51;;;;;;;16.90;5.57;;;;;;;13.32;100.00;97324.75;5034268;28;20411;-77
2021/05/18 11:23:18;;;;;;;9.63;3.90;;;;;;;12.90;100.00;97323.34;5035179;28;20076;-78
2021/05/18 11:25:10;;;;;;;12.75;4.68;;;;;;;12.66;100.00;97323.28;5038037;28;20192;-76
2021/05/18 11:27:38;;;;;;;13.13;3.90;;;;;;;12.50;100.00;97323.13;5036430;28;20833;-77
2021/05/18 11:30:07;;;;;;;8.40;3.92;;;;;;;12.49;100.00;97325.03;5032975;28;20189;-77
2021/05/18 11:32:34;;;;;;;9.43;3.55;;;;;;;12.56;100.00;97319.06;5001247;28;20045;-75
2021/05/18 11:35:05;;;;;;;12.52;4.00;;;;;;;12.64;100.00;97311.97;5016024;28;20057;-78
2021/05/18 11:37:35;;;;;;;10.23;3.25;;;;;;;13.08;100.00;97324.75;5032126;28;20060;-76
2021/05/18 11:40:16;;;;;;;7.10;3.10;;;;;;;13.43;100.00;97308.78;5030830;28;20103;-77
2021/05/18 11:42:44;;;;;;;7.13;2.63;;;;;;;13.50;100.00;97309.78;5032952;28;20045;-77
2021/05/18 11:45:14;;;;;;;9.25;2.17;;;;;;;13.75;100.00;97305.91;5033120;28;20103;-76
2021/05/18 11:47:43;;;;;;;5.07;1.20;;;;;;;14.52;100.00;97301.16;5032668;28;20045;-77
2021/05/18 11:50:26;;;;;;;3.67;1.25;;;;;;;14.60;100.00;97311.09;5014352;28;20093;-77
2021/05/18 11:52:54;;;;;;;3.20;1.00;;;;;;;14.61;100.00;97314.59;5014118;28;20461;-76
2021/05/18 11:55:30;;;;;;;5.65;1.20;;;;;;;15.24;100.00;97310.78;5031288;28;20048;-76
2021/05/18 11:57:58;;;;;;;2.50;0.88;;;;;;;16.81;100.00;97316.56;5031768;28;20623;-76
2021/05/18 12:00:27;;;;;;;1.83;0.80;;;;;;;18.83;100.00;97295.63;5032072;28;20058;-77
2021/05/18 12:03:06;;;;;;;2.28;1.10;;;;;;;-141.50;100.00;63355.56;5032614;28;20408;-77
2021/05/18 12:05:35;;;;;;;2.97;1.13;;;;;;;-141.50;100.00;63355.56;5014519;28;20062;-76
2021/05/18 12:08:02;;;;;;;1.48;0.85;;;;;;;19.63;78.26;97292.84;5014393;28;20045;-75
2021/05/18 12:10:35;;;;;;;2.28;0.70;;;;;;;20.52;68.19;97293.34;5031430;28;20042;-77
2021/05/18 12:13:05;;;;;;;0.80;0.50;;;;;;;19.64;66.94;97286.16;5030129;28;20128;-75
2021/05/18 12:15:32;;;;;;;1.35;0.60;;;;;;;20.22;61.51;97290.81;5030109;28;20126;-76
2021/05/18 12:17:59;;;;;;;1.00;0.70;;;;;;;21.65;51.88;97292.28;5030656;28;20727;-78
2021/05/18 12:20:26;;;;;;;1.63;0.95;;;;;;;21.92;49.60;97280.84;5029389;28;20124;-75
2021/05/18 12:22:55;;;;;;;1.67;0.95;;;;;;;19.25;57.61;97279.56;5008871;28;20038;-75
2021/05/18 12:25:30;;;;;;;1.30;0.90;;;;;;;21.25;61.02;97275.38;5028155;28;20033;-76
2021/05/18 12:28:05;;;;;;;2.20;1.10;;;;;;;22.06;57.04;97270.59;5012793;28;20053;-76
2021/05/18 12:30:34;;;;;;;0.90;0.80;;;;;;;21.96;52.07;97279.69;5029609;28;20041;-77
2021/05/18 12:33:01;;;;;;;2.83;1.00;;;;;;;22.44;52.80;97266.09;4995901;28;20045;-78
2021/05/18 12:35:29;;;;;;;1.98;1.35;;;;;;;21.20;60.12;97265.56;5013071;28;20159;-77
2021/05/18 12:37:56;;;;;;;2.05;1.30;;;;;;;20.28;65.26;97250.81;5029657;28;20497;-78
2021/05/18 12:40:26;;;;;;;1.40;1.08;;;;;;;21.68;59.59;97257.66;5028815;28;20052;-76
2021/05/18 12:42:55;;;;;;;2.35;1.10;;;;;;;23.27;51.04;97248.63;5028703;28;20041;-77
2021/05/18 12:45:24;;;;;;;3.08;1.25;;;;;;;23.44;46.92;97247.72;5045336;23;20089;-79
2021/05/18 12:47:58;;;;;;;1.60;1.20;;;;;;;24.80;44.25;97240.28;4980856;28;20057;-77
2021/05/18 12:50:50;;;;;;;2.45;1.40;;;;;;;25.25;42.39;97242.34;5008931;28;20046;-77
2021/05/18 12:53:28;;;;;;;3.15;1.30;;;;;;;23.74;44.84;97236.78;5023297;28;20137;-78
2021/05/18 12:55:57;;;;;;;1.92;1.50;;;;;;;24.20;44.09;97239.06;5023535;28;20512;-78
2021/05/18 12:58:27;;;;;;;2.25;1.40;;;;;;;25.32;40.97;97236.66;5021656;28;20081;-80
2021/05/18 13:01:06;;;;;;;2.17;1.20;;;;;;;24.95;38.44;97250.72;5016469;28;20074;-81
2021/05/18 13:03:33;;;;;;;2.60;1.45;;;;;;;20.43;47.80;97241.44;5001877;28;20038;-78
2021/05/18 13:06:02;;;;;;;4.03;1.40;;;;;;;19.64;54.59;97233.97;5003822;28;20042;-80
2021/05/18 13:08:37;;;;;;;2.97;1.30;;;;;;;18.24;69.89;97228.81;5022141;28;20042;-78
2021/05/18 13:13:56;;;;;;;2.78;1.45;;;;;;;16.08;100.00;97243.69;5022349;28;20048;-79
2021/05/18 13:16:26;;;;;;;2.55;1.13;;;;;;;15.74;100.00;97238.31;5020626;28;20049;-79
2021/05/18 13:18:59;;;;;;;2.70;1.08;;;;;;;15.44;100.00;97243.44;5005099;28;20069;-78
2021/05/18 13:21:36;;;;;;;4.43;1.10;;;;;;;14.74;100.00;97256.16;5005287;28;20033;-79
2021/05/18 13:26:38;;;;;;;4.00;1.50;;;;;;;14.14;100.00;97249.88;5002428;28;20046;-80
2021/05/18 13:29:16;;;;;;;2.22;1.70;;;;;;;14.76;100.00;97259.34;5023403;28;20058;-81
2021/05/18 13:31:44;;;;;;;3.08;1.60;;;;;;;16.81;100.00;97257.19;5004586;28;20046;-80
2021/05/18 13:34:11;;;;;;;2.33;1.40;;;;;;;18.44;100.00;97245.84;5005433;28;20042;-80
2021/05/18 13:36:47;;;;;;;5.65;1.33;;;;;;;19.74;100.00;97246.97;5004682;28;20034;-83
2021/05/18 13:39:19;;;;;;;3.38;1.20;;;;;;;19.95;74.83;97253.78;4985318;28;20046;-79
2021/05/18 13:41:48;;;;;;;2.08;0.90;;;;;;;20.00;70.78;97245.97;5000602;28;20053;-78
2021/05/18 13:44:16;;;;;;;2.70;1.40;;;;;;;20.76;58.93;97240.31;5002082;28;20042;-80
2021/05/18 13:46:47;;;;;;;2.63;1.00;;;;;;;20.70;69.79;97241.91;5005248;28;20053;-80
2021/05/18 13:49:15;;;;;;;1.85;1.00;;;;;;;22.05;57.71;97252.47;5014072;28;20062;-79
2021/05/18 13:51:43;;;;;;;4.72;1.02;;;;;;;22.18;54.39;97250.06;5013489;28;20057;-80
2021/05/18 13:54:48;;;;;;;1.38;1.08;;;;;;;22.76;51.33;97232.84;5029536;28;20052;-81
2021/05/18 13:57:19;;;;;;;1.58;1.20;;;;;;;22.62;47.25;97228.19;5021435;28;20111;-74
2021/05/18 13:59:48;;;;;;;2.30;1.13;;;;;;;22.61;53.82;97247.91;5022617;28;20136;-80
2021/05/18 14:02:17;;;;;;;1.88;1.10;;;;;;;22.09;50.22;97239.44;5021895;28;20049;-83
2021/05/18 14:04:44;;;;;;;2.10;1.10;;;;;;;22.00;53.77;97244.63;5017575;28;20046;-81
2021/05/18 14:09:51;;;;;;;5.25;1.20;;;;;;;21.29;49.75;97243.16;5026765;28;20057;-82
2021/05/18 14:12:19;;;;;;;2.55;1.00;;;;;;;19.74;57.08;97244.22;5013820;28;20065;-74
2021/05/18 14:14:46;;;;;;;1.73;0.95;;;;;;;19.30;57.65;97243.53;5010827;28;20070;-73
2021/05/18 14:17:13;;;;;;;4.25;0.90;;;;;;;20.06;60.29;97238.13;5011411;28;20633;-80
2021/05/18 14:19:43;;;;;;;1.67;0.93;;;;;;;20.51;62.42;97248.53;5017425;28;20137;-79
2021/05/18 14:22:10;;;;;;;3.95;1.00;;;;;;;20.12;60.55;97234.63;5024916;28;20056;-79
2021/05/18 14:24:42;;;;;;;4.30;1.10;;;;;;;19.53;55.79;97230.41;5025619;28;20568;-79
2021/05/18 14:27:10;;;;;;;2.45;0.90;;;;;;;18.33;69.92;97237.50;5024099;28;20133;-81
2021/05/18 14:29:37;;;;;;;2.30;0.80;;;;;;;17.92;82.06;97233.09;5021844;28;20042;-78
2021/05/18 14:32:03;;;;;;;1.30;0.57;;;;;;;17.00;79.22;97226.28;5023939;28;20064;-78
2021/05/18 14:34:30;;;;;;;0.80;0.50;;;;;;;16.57;100.00;97227.47;5021646;28;20088;-77
2021/05/18 14:36:58;;;;;;;1.63;0.80;;;;;;;16.41;100.00;97236.91;5039088;28;20157;-78
2021/05/18 14:39:36;;;;;;;1.05;0.70;;;;;;;16.16;100.00;97225.50;5006029;28;20053;-78
2021/05/18 14:44:48;;;;;;;4.45;0.95;;;;;;;16.14;100.00;97231.34;5020194;28;20041;-77
2021/05/18 14:47:20;;;;;;;2.38;0.90;;;;;;;16.49;100.00;97224.97;5014265;28;20046;-79
2021/05/18 14:55:24;;;;;;;2.42;0.73;;;;;;;20.18;59.91;97221.31;5005970;28;20038;-78
2021/05/18 14:57:52;;;;;;;1.60;0.68;;;;;;;19.94;59.76;97202.75;5003778;28;20046;-78
2021/05/18 15:00:19;;;;;;;2.13;0.70;;;;;;;18.67;72.65;97219.88;5005913;28;20034;-78
2021/05/18 15:02:47;;;;;;;2.92;1.08;;;;;;;18.21;79.75;97210.38;4996860;28;20141;-78
2021/05/18 15:05:16;;;;;;;2.85;0.90;;;;;;;18.47;75.94;97221.25;4991554;28;20042;-77
2021/05/18 15:07:44;;;;;;;1.20;0.65;;;;;;;18.33;64.54;97215.56;5007450;28;20082;-77
2021/05/18 15:10:12;;;;;;;1.30;0.70;;;;;;;17.67;74.36;97212.81;5024931;28;20104;-77
2021/05/18 15:12:39;;;;;;;1.17;0.50;;;;;;;17.05;87.70;97211.50;5024979;28;20057;-76
2021/05/18 15:15:06;;;;;;;1.77;0.63;;;;;;;17.12;92.22;97211.59;5026690;28;20072;-77
2021/05/18 15:17:33;;;;;;;1.40;0.68;;;;;;;17.22;97.55;97210.97;5025448;28;20056;-78
2021/05/18 15:20:00;;;;;;;2.47;0.80;;;;;;;16.21;100.00;97212.34;5023533;28;20281;-78
2021/05/18 15:22:28;;;;;;;4.53;0.82;;;;;;;15.37;100.00;97205.13;5024120;28;20056;-76
2021/05/18 15:24:55;;;;;;;2.47;0.60;;;;;;;15.23;100.00;97224.66;5023874;28;20102;-78
2021/05/18 15:27:27;;;;;;;1.75;0.50;;;;;;;15.15;100.00;97228.38;5006860;28;20398;-77
2021/05/18 15:29:54;;;;;;;1.88;0.60;;;;;;;14.83;100.00;97224.91;5039240;28;20670;-77
2021/05/18 15:32:24;;;;;;;2.63;0.60;;;;;;;14.68;100.00;97227.63;5023887;28;20046;-77
2021/05/18 15:34:51;;;;;;;0.85;0.60;;;;;;;14.33;100.00;97232.91;5020782;28;20090;-78
2021/05/18 15:37:18;;;;;;;4.57;0.80;;;;;;;13.58;100.00;97257.22;5018447;28;20140;-81
2021/05/18 15:39:45;;;;;;;3.15;0.90;;;;;;;13.18;100.00;97247.41;5016901;28;20081;-79
2021/05/18 15:42:14;;;;;;;1.63;0.90;;;;;;;12.67;100.00;97263.19;5014911;28;20133;-78
2021/05/18 15:44:41;;;;;;;3.70;1.80;;;;;;;12.23;100.00;97267.47;5010735;28;20046;-79
2021/05/18 15:47:09;;;;;;;4.63;1.42;;;;;;;11.79;100.00;97293.41;5014635;28;20155;-79
2021/05/18 15:49:36;;;;;;;4.72;0.90;;;;;;;11.37;100.00;97289.06;5015783;28;20061;-79
2021/05/18 15:52:03;;;;;;;4.53;1.00;;;;;;;11.03;100.00;97289.22;5015909;28;20069;-78
2021/05/18 15:54:33;;;;;;;3.60;1.17;;;;;;;10.85;100.00;97304.75;5016052;28;20038;-79
2021/05/18 15:57:00;;;;;;;7.53;1.40;;;;;;;10.63;100.00;97310.41;5017694;28;20144;-79
2021/05/18 15:59:26;;;;;;;7.32;1.70;;;;;;;10.51;100.00;97321.09;5017826;28;20571;-78
2021/05/18 16:01:55;;;;;;;4.65;1.52;;;;;;;10.43;100.00;97330.81;5018958;28;20038;-78
2021/05/18 16:04:23;;;;;;;4.38;1.63;;;;;;;10.45;100.00;97338.63;5019398;28;20042;-79
2021/05/18 16:06:51;;;;;;;3.35;1.83;;;;;;;10.56;100.00;97334.44;5028351;28;20050;-79
2021/05/18 16:09:21;;;;;;;5.88;1.90;;;;;;;10.64;100.00;97328.22;5011256;28;20323;-78
2021/05/18 16:11:48;;;;;;;3.90;1.70;;;;;;;10.82;100.00;97343.31;5022773;28;20068;-77
2021/05/18 16:14:14;;;;;;;4.90;1.70;;;;;;;10.82;100.00;97327.06;5025129;28;20049;-77
2021/05/18 16:16:41;;;;;;;5.05;2.25;;;;;;;11.07;100.00;97338.94;5023985;28;20068;-76
2021/05/18 16:19:08;;;;;;;3.65;1.70;;;;;;;11.09;100.00;97332.06;5022922;28;20103;-79
2021/05/18 16:21:35;;;;;;;4.07;1.70;;;;;;;11.20;100.00;97333.28;5023066;28;20209;-78
2021/05/18 16:24:04;;;;;;;4.28;1.40;;;;;;;11.37;100.00;97337.84;5019597;28;20042;-78
2021/05/18 16:26:33;;;;;;;3.97;1.38;;;;;;;11.38;100.00;97333.22;5018573;28;20054;-79
2021/05/18 16:29:01;;;;;;;2.95;0.90;;;;;;;11.46;100.00;97338.56;5019064;28;20073;-77
2021/05/18 16:31:30;;;;;;;2.33;0.75;;;;;;;11.50;100.00;97336.81;5020557;28;20049;-77
2021/05/18 16:33:57;;;;;;;1.05;0.75;;;;;;;11.52;100.00;97333.75;5021273;28;20515;-77
2021/05/18 16:36:24;;;;;;;3.65;0.77;;;;;;;11.51;100.00;97335.66;5003477;28;20473;-76
2021/05/18 16:38:55;;;;;;;1.90;0.68;;;;;;;11.56;100.00;97332.75;5017104;28;20401;-78
2021/05/18 16:41:38;;;;;;;4.28;0.80;;;;;;;11.59;100.00;97334.03;5017115;28;20522;-79
2021/05/18 16:44:06;;;;;;;2.25;0.60;;;;;;;11.62;100.00;97328.75;5000154;28;20452;-78
2021/05/18 16:46:33;;;;;;;3.60;0.95;;;;;;;11.76;100.00;97342.09;5013905;28;20077;-76
2021/05/18 16:49:00;;;;;;;2.72;1.00;;;;;;;11.88;100.00;97337.53;5002259;28;20485;-75
2021/05/18 16:51:27;;;;;;;3.72;0.70;;;;;;;11.93;100.00;97322.19;5011427;28;20049;-77
2021/05/18 16:53:57;;;;;;;1.33;0.90;;;;;;;12.02;100.00;97337.28;4996727;28;20042;-76
2021/05/18 16:56:24;;;;;;;2.88;0.85;;;;;;;12.12;100.00;97331.47;5006847;28;20127;-77
2021/05/18 16:58:52;;;;;;;3.13;0.52;;;;;;;12.11;100.00;97334.47;4998028;28;20088;-77
2021/05/18 17:01:20;;;;;;;1.83;0.80;;;;;;;12.11;100.00;97327.16;4993044;28;20042;-76
2021/05/18 17:04:07;;;;;;;3.38;0.65;;;;;;;12.17;100.00;97333.16;4977223;28;20061;-76
2021/05/18 17:06:35;;;;;;;2.78;0.73;;;;;;;12.32;100.00;97336.06;4995988;28;20046;-79
2021/05/18 17:09:04;;;;;;;2.35;1.20;;;;;;;12.13;100.00;97321.41;4998268;28;20042;-77
2021/05/18 17:11:31;;;;;;;2.60;1.20;;;;;;;12.29;100.00;97336.72;5001654;28;20126;-77
2021/05/18 17:13:57;;;;;;;5.90;1.65;;;;;;;12.32;100.00;97338.78;5017512;28;20524;-77
2021/05/18 17:16:24;;;;;;;9.48;4.80;;;;;;;12.35;100.00;97332.69;5003134;28;20046;-77
2021/05/18 17:18:51;;;;;;;4.03;2.28;;;;;;;12.17;100.00;97341.31;4991689;28;20061;-77
2021/05/18 17:21:21;;;;;;;3.72;1.60;;;;;;;12.31;100.00;97344.56;5005239;28;20057;-76
2021/05/18 17:23:47;;;;;;;4.82;1.90;;;;;;;12.27;100.00;97336.28;5002557;28;20106;-76
2021/05/18 17:26:14;;;;;;;3.10;1.60;;;;;;;12.22;100.00;97344.63;5000600;28;20058;-77
2021/05/18 17:28:41;;;;;;;5.50;1.70;;;;;;;12.16;100.00;97339.72;5000731;28;20401;-77
2021/05/18 17:31:11;;;;;;;3.72;1.75;;;;;;;12.17;100.00;97333.16;5000710;28;20054;-77
2021/05/18 17:33:38;;;;;;;2.97;1.60;;;;;;;11.96;100.00;97345.94;5001518;28;20088;-77
2021/05/18 17:36:05;;;;;;;5.30;2.00;;;;;;;11.98;100.00;97338.25;4984392;28;20517;-77
2021/05/18 17:38:32;;;;;;;8.82;3.00;;;;;;;11.96;100.00;97343.22;5002474;28;20290;-77
2021/05/18 17:41:01;;;;;;;7.22;2.33;;;;;;;12.05;100.00;97343.97;5002223;28;20055;-77
2021/05/18 17:43:29;;;;;;;6.07;2.42;;;;;;;12.10;100.00;97339.13;4984503;28;20135;-78
2021/05/18 17:46:00;;;;;;;6.35;2.15;;;;;;;12.10;100.00;97346.47;5008978;28;20076;-77
2021/05/18 17:48:28;;;;;;;9.18;2.75;;;;;;;12.25;100.00;97346.66;5019264;28;20776;-77
2021/05/18 17:50:55;;;;;;;6.38;1.90;;;;;;;12.32;100.00;97357.78;5018820;28;20053;-76
2021/05/18 17:53:23;;;;;;;5.85;1.83;;;;;;;12.37;100.00;97354.84;5024064;28;20064;-76
2021/05/18 17:55:49;;;;;;;7.38;2.00;;;;;;;12.31;100.00;97349.97;5022105;28;20053;-76
2021/05/18 17:58:18;;;;;;;4.35;2.05;;;;;;;12.22;100.00;97351.97;5002791;28;20076;-76
2021/05/18 18:00:45;;;;;;;6.75;2.10;;;;;;;12.13;100.00;97353.97;5000831;28;20053;-76
2021/05/18 18:03:11;;;;;;;3.72;1.98;;;;;;;12.08;100.00;97357.66;5003197;28;20120;-75
2021/05/18 18:05:38;;;;;;;5.03;1.85;;;;;;;12.07;100.00;97358.00;5017233;28;20139;-77
2021/05/18 18:08:05;;;;;;;5.25;1.90;;;;;;;11.84;100.00;97347.47;5002709;28;20156;-77
2021/05/18 18:10:33;;;;;;;5.10;2.03;;;;;;;11.74;100.00;97347.84;5031915;28;20125;-77
2021/05/18 18:13:00;;;;;;;5.30;1.80;;;;;;;11.72;100.00;97365.56;5024322;28;20544;-79
2021/05/18 18:15:28;;;;;;;8.88;2.30;;;;;;;11.56;100.00;97369.94;5021394;28;20397;-78
2021/05/18 18:17:55;;;;;;;3.85;1.92;;;;;;;11.35;100.00;97363.66;5017307;28;20061;-78
2021/05/18 18:20:22;;;;;;;3.17;1.88;;;;;;;11.32;100.00;97367.03;5018741;28;20142;-77
2021/05/18 18:22:48;;;;;;;5.78;1.58;;;;;;;11.11;100.00;97365.03;5034089;28;20068;-78
2021/05/18 18:25:15;;;;;;;4.70;1.52;;;;;;;10.93;100.00;97377.06;5021358;28;20052;-77
2021/05/18 18:27:42;;;;;;;3.28;1.60;;;;;;;10.85;100.00;97364.31;5022015;28;20106;-77
2021/05/18 18:30:10;;;;;;;5.05;2.08;;;;;;;10.72;100.00;97378.03;5018857;28;20555;-77
2021/05/18 18:32:38;;;;;;;4.90;1.90;;;;;;;10.63;100.00;97372.66;5016420;28;20054;-77
2021/05/18 18:35:06;;;;;;;10.25;5.75;;;;;;;10.54;100.00;97371.88;5015527;28;20088;-77
2021/05/18 18:37:36;;;;;;;9.52;5.40;;;;;;;10.38;100.00;97365.34;5020211;28;20121;-77
2021/05/18 18:40:08;;;;;;;2.42;1.48;;;;;;;10.23;100.00;97377.47;5023105;28;20026;-76
2021/05/18 18:42:35;;;;;;;2.95;1.48;;;;;;;10.15;100.00;97374.75;4998373;28;20057;-77
2021/05/18 18:45:04;;;;;;;4.30;1.92;;;;;;;10.10;100.00;97380.28;5007493;23;20050;-79
2021/05/18 18:47:30;;;;;;;5.80;1.92;;;;;;;10.07;100.00;97378.22;4989945;28;20050;-79
2021/05/18 18:49:59;;;;;;;4.97;1.90;;;;;;;9.99;100.00;97371.69;4999106;28;20523;-78
2021/05/18 18:55:14;;;;;;;12.80;6.88;;;;;;;9.89;100.00;97390.94;4974767;28;20097;-79
2021/05/18 18:57:41;;;;;;;4.05;1.70;;;;;;;9.82;100.00;97380.59;4973080;28;20051;-78
2021/05/18 19:00:11;;;;;;;3.92;1.45;;;;;;;9.75;100.00;97390.28;4972955;28;20051;-78
2021/05/18 19:02:46;;;;;;;3.38;1.63;;;;;;;9.69;100.00;97400.44;4972265;28;20062;-78
2021/05/18 19:07:48;;;;;;;5.10;1.80;;;;;;;9.52;100.00;97408.50;4993108;28;20050;-78
2021/05/18 19:10:26;;;;;;;3.10;1.60;;;;;;;9.48;100.00;97395.91;4992078;28;20053;-78
2021/05/18 19:12:53;;;;;;;4.72;1.50;;;;;;;9.39;100.00;97401.31;4974524;28;20520;-78
2021/05/18 19:15:20;;;;;;;4.70;1.48;;;;;;;9.44;100.00;97401.16;4989994;28;20050;-78
2021/05/18 19:17:47;;;;;;;2.53;1.55;;;;;;;9.26;100.00;97405.72;4991266;28;20046;-78
2021/05/18 19:20:15;;;;;;;4.43;1.70;;;;;;;9.30;100.00;97416.69;4989138;28;20147;-78
2021/05/18 19:22:42;;;;;;;6.22;1.35;;;;;;;9.18;100.00;97422.69;4989401;28;20694;-78
2021/05/18 19:25:10;;;;;;;2.45;1.13;;;;;;;9.13;100.00;97419.31;4987371;28;20061;-77
2021/05/18 19:27:45;;;;;;;2.80;1.33;;;;;;;9.15;100.00;97417.91;4986805;28;20406;-77
2021/05/18 19:30:18;;;;;;;2.57;1.43;;;;;;;9.27;100.00;97420.00;4989161;28;20540;-79
2021/05/18 19:32:47;;;;;;;3.15;1.20;;;;;;;9.42;100.00;97419.56;4988371;28;20356;-79
2021/05/18 19:35:31;;;;;;;4.18;1.00;;;;;;;9.52;100.00;97411.22;4988220;28;20050;-76
2021/05/18 19:48:42;;;;;;;1.63;0.80;;;;;;;9.43;100.00;97401.47;4989164;28;20069;-77
2021/05/18 19:51:09;;;;;;;0.65;0.40;;;;;;;9.42;100.00;97410.69;4970234;28;20057;-77
2021/05/18 19:53:38;;;;;;;1.67;0.60;;;;;;;9.35;100.00;97419.25;4986715;28;20042;-77
2021/05/18 19:56:17;;;;;;;1.00;0.50;;;;;;;9.17;100.00;97407.56;4988715;28;20046;-79
2021/05/18 20:17:55;;;;;;;0.98;0.60;;;;;;;8.70;100.00;97424.44;4987153;28;20057;-76
2021/05/18 20:20:24;;;;;;;0.95;0.63;;;;;;;8.66;100.00;97431.56;4986958;28;20204;-76
2021/05/18 20:22:52;;;;;;;2.03;0.40;;;;;;;8.64;100.00;97428.38;4988040;28;20053;-77
2021/05/18 20:25:18;;;;;;;1.35;0.70;;;;;;;8.65;100.00;97428.06;4987155;28;20441;-76
2021/05/18 20:27:47;;;;;;;1.70;0.60;;;;;;;8.64;100.00;97431.88;4987378;28;20046;-76
2021/05/18 20:30:14;;;;;;;0.90;0.40;;;;;;;8.69;100.00;97433.66;4987204;28;20077;-77
2021/05/18 20:32:42;;;;;;;0.90;0.60;;;;;;;8.73;100.00;97430.03;4985397;28;20046;-77
2021/05/18 20:35:38;;;;;;;3.08;0.70;;;;;;;8.69;100.00;97437.16;4983949;28;20046;-76
2021/05/18 20:40:51;;;;;;;1.42;0.80;;;;;;;8.71;100.00;97442.25;4987197;28;20517;-76
2021/05/18 20:43:18;;;;;;;2.17;0.70;;;;;;;8.71;100.00;97436.84;4986533;28;20590;-76
2021/05/18 20:45:44;;;;;;;0.80;0.60;;;;;;;8.71;100.00;97453.84;4986056;28;20065;-77
2021/05/18 20:48:14;;;;;;;2.55;0.70;;;;;;;8.70;100.00;97449.53;4986896;28;20109;-76
2021/05/18 20:50:42;;;;;;;3.22;0.73;;;;;;;8.71;100.00;97443.03;4969713;28;20054;-76
2021/05/18 20:53:09;;;;;;;1.50;0.70;;;;;;;8.72;100.00;97450.03;4986348;28;20054;-76
2021/05/18 20:55:38;;;;;;;2.70;0.90;;;;;;;8.77;100.00;97447.19;4986557;28;20413;-76
2021/05/18 20:58:06;;;;;;;2.05;0.85;;;;;;;8.75;100.00;97452.09;4986887;28;20456;-76
2021/05/18 21:00:32;;;;;;;4.80;1.70;;;;;;;8.81;100.00;97463.56;4986764;28;20464;-76
2021/05/18 21:02:59;;;;;;;3.30;1.60;;;;;;;8.86;100.00;97455.34;4986435;28;20755;-76
2021/05/18 21:05:25;;;;;;;5.80;1.98;;;;;;;8.88;100.00;97463.16;4986402;28;20042;-76
2021/05/18 21:10:26;;;;;;;4.07;1.80;;;;;;;8.89;100.00;97459.34;4986361;28;20038;-76
2021/05/18 21:15:46;;;;;;;5.35;1.80;;;;;;;8.90;100.00;97469.03;4986634;28;20050;-76
2021/05/18 21:18:14;;;;;;;3.47;1.70;;;;;;;8.90;100.00;97467.16;4968907;28;20153;-78
2021/05/18 21:20:43;;;;;;;3.53;2.22;;;;;;;8.93;100.00;97471.13;4968678;28;20096;-76
2021/05/18 21:23:11;;;;;;;6.50;2.40;;;;;;;8.92;100.00;97472.22;4970522;28;20473;-75
2021/05/18 21:25:37;;;;;;;5.25;2.50;;;;;;;8.93;100.00;97479.22;4987010;28;20043;-76
2021/05/18 21:28:04;;;;;;;4.75;2.30;;;;;;;8.97;100.00;97478.31;4986931;28;20096;-76
2021/05/18 21:30:31;;;;;;;4.78;2.28;;;;;;;9.00;100.00;97472.28;4987915;28;20050;-76
2021/05/18 21:32:57;;;;;;;5.43;2.20;;;;;;;9.01;100.00;97468.47;4986640;28;20042;-76
2021/05/18 21:35:24;;;;;;;3.67;2.10;;;;;;;9.00;100.00;97476.88;4987333;28;20457;-77
2021/05/18 21:37:51;;;;;;;5.38;2.00;;;;;;;8.99;100.00;97469.88;4987577;28;20046;-77
2021/05/18 21:40:23;;;;;;;3.95;1.80;;;;;;;9.03;100.00;97479.78;4986939;28;20042;-76
2021/05/18 21:42:57;;;;;;;4.15;1.73;;;;;;;9.02;100.00;97475.47;4987578;28;20050;-76
2021/05/18 21:45:24;;;;;;;4.28;2.15;;;;;;;9.04;100.00;97477.84;4986612;28;20046;-77
2021/05/18 21:47:52;;;;;;;3.72;1.80;;;;;;;9.04;100.00;97472.47;4985336;28;20046;-76
2021/05/18 21:50:20;;;;;;;5.28;2.45;;;;;;;9.10;100.00;97473.94;4985641;28;20105;-77
2021/05/18 21:52:46;;;;;;;2.25;1.58;;;;;;;9.08;100.00;97481.56;4987336;28;20121;-76
2021/05/18 21:55:15;;;;;;;4.57;2.20;;;;;;;9.13;100.00;97471.41;4989851;28;20280;-77
2021/05/18 21:57:41;;;;;;;4.72;2.28;;;;;;;9.11;100.00;97481.72;4989686;28;20050;-77